Time;durP1;ratioP1;P1;durP2;ratioP2;P2;SDS_P1;SDS_P2;PMS_P1;PMS_P2;Temp;Humidity;BMP_temperature;BMP_pressure;BME280_temperature;BME280_humidity;BME280_pressure;Samples;Min_cycle;Max_cycle;Signal;HPM_P1;HPM_P2
2022/01/28 00:00:14;;;;;;;24.27;15.85;;;;;;;-4.13;65.69;100895.70;1752012;82;20947;-80
2022/01/28 00:05:26;;;;;;;29.48;14.93;;;;;;;-4.08;65.86;100891.88;1752630;82;21006;-81
2022/01/28 00:07:54;;;;;;;24.65;13.38;;;;;;;-4.03;65.96;100894.02;1753035;82;20967;-80
2022/01/28 00:10:22;;;;;;;25.35;14.78;;;;;;;-3.99;65.98;100894.47;1752901;82;21125;-80
2022/01/28 00:13:12;;;;;;;25.90;14.30;;;;;;;-3.96;66.08;100896.62;1752644;82;20931;-79
2022/01/28 00:16:01;;;;;;;27.22;14.75;;;;;;;-3.92;66.11;100893.64;1749715;82;20994;-82
2022/01/28 00:36:41;;;;;;;24.27;14.23;;;;;;;-3.86;66.50;100888.55;1752710;82;20896;-80
2022/01/28 00:37:09;;;;;;;25.12;13.98;;;;;;;-3.87;67.19;100872.72;1752552;82;21154;-79
2022/01/28 00:39:29;;;;;;;26.42;14.30;;;;;;;-3.88;67.43;100867.62;1751640;82;21535;-80
2022/01/28 00:41:56;;;;;;;26.73;14.80;;;;;;;-3.89;67.51;100862.92;1753013;82;20943;-81
2022/01/28 00:44:23;;;;;;;26.48;15.55;;;;;;;-3.92;67.85;100854.36;1752653;82;20999;-81
2022/01/28 00:46:50;;;;;;;25.62;14.28;;;;;;;-3.95;68.03;100851.38;1752819;82;20935;-82
2022/01/28 00:49:17;;;;;;;27.35;15.45;;;;;;;-3.99;68.32;100849.64;1752897;82;21070;-80
2022/01/28 00:51:44;;;;;;;32.10;16.85;;;;;;;-4.01;68.55;100839.39;1752611;82;20975;-82
2022/01/28 00:54:11;;;;;;;30.43;15.20;;;;;;;-4.03;68.86;100837.67;1753128;82;21389;-80
2022/01/28 00:56:38;;;;;;;26.80;16.52;;;;;;;-4.06;69.10;100824.88;1753326;82;20931;-82
2022/01/28 00:59:05;;;;;;;30.55;16.87;;;;;;;-4.09;69.36;100824.45;1753812;81;20991;-79
2022/01/28 01:01:32;;;;;;;30.82;18.23;;;;;;;-4.11;69.71;100827.42;1756085;81;21300;-81
2022/01/28 01:04:00;;;;;;;27.58;16.37;;;;;;;-4.12;69.98;100821.85;1755889;81;20951;-80
2022/01/28 01:06:27;;;;;;;33.92;16.55;;;;;;;-4.14;70.31;100827.83;1754965;82;20932;-80
2022/01/28 01:08:54;;;;;;;30.77;18.00;;;;;;;-4.15;70.67;100823.56;1753681;82;21428;-81
2022/01/28 01:11:23;;;;;;;29.32;16.57;;;;;;;-4.17;70.96;100819.71;1753124;82;20990;-80
2022/01/28 01:13:50;;;;;;;29.45;17.55;;;;;;;-4.17;71.27;100821.84;1752795;82;21204;-80
2022/01/28 01:16:24;;;;;;;30.85;18.12;;;;;;;-4.17;71.49;100819.28;1752685;82;20939;-82
2022/01/28 01:18:56;;;;;;;29.05;16.30;;;;;;;-4.18;71.64;100819.27;1748129;82;20956;-80
2022/01/28 01:21:23;;;;;;;29.55;17.52;;;;;;;-4.17;71.77;100822.27;1745048;82;20940;-82
2022/01/28 01:23:52;;;;;;;30.70;15.88;;;;;;;-4.15;71.83;100815.89;1744315;82;20845;-80
2022/01/28 01:26:15;;;;;;;37.25;16.90;;;;;;;-4.14;72.01;100813.31;1744238;82;21850;-81
2022/01/28 01:28:42;;;;;;;31.77;17.40;;;;;;;-4.12;72.14;100816.73;1744695;82;21031;-79
2022/01/28 01:31:14;;;;;;;26.93;15.72;;;;;;;-4.09;72.23;100804.36;1744768;82;21046;-79
2022/01/28 01:33:50;;;;;;;29.42;16.17;;;;;;;-4.06;72.35;100809.51;1744561;82;20904;-80
2022/01/28 01:36:12;;;;;;;31.25;15.15;;;;;;;-4.04;72.46;100801.41;1743993;82;21058;-78
2022/01/28 01:38:40;;;;;;;37.15;15.43;;;;;;;-4.04;72.90;100798.41;1744695;82;21804;-81
2022/01/28 01:41:15;;;;;;;31.57;15.58;;;;;;;-4.02;73.18;100794.58;1744556;82;20888;-80
2022/01/28 01:43:56;;;;;;;29.65;15.30;;;;;;;-4.01;73.35;100790.73;1743654;82;20912;-79
2022/01/28 01:46:29;;;;;;;29.25;15.32;;;;;;;-3.99;73.51;100799.27;1743953;82;20900;-78
2022/01/28 01:54:17;;;;;;;30.55;16.32;;;;;;;-3.93;73.65;100795.88;1744444;82;20983;-78
2022/01/28 01:56:44;;;;;;;35.60;15.15;;;;;;;-3.92;73.72;100795.45;1744494;82;21024;-77
2022/01/28 01:59:11;;;;;;;25.82;12.63;;;;;;;-3.93;73.85;100781.80;1744682;82;20880;-79
2022/01/28 02:01:41;;;;;;;29.87;15.08;;;;;;;-3.92;73.86;100785.20;1744575;82;21493;-79
2022/01/28 02:04:08;;;;;;;33.63;15.40;;;;;;;-3.89;73.87;100782.63;1744834;82;21143;-79
2022/01/28 02:06:35;;;;;;;28.45;15.53;;;;;;;-3.86;73.98;100791.62;1744472;82;21403;-80
2022/01/28 02:09:02;;;;;;;31.90;14.80;;;;;;;-3.85;73.92;100776.67;1744830;82;21397;-81
2022/01/28 02:11:29;;;;;;;31.10;15.40;;;;;;;-3.84;73.84;100765.59;1744501;82;20940;-78
2022/01/28 02:13:56;;;;;;;30.35;16.50;;;;;;;-3.83;73.74;100768.13;1745022;82;21495;-80
2022/01/28 02:16:23;;;;;;;28.38;15.60;;;;;;;-3.82;73.65;100763.45;1744549;82;21149;-78
2022/01/28 02:18:50;;;;;;;29.40;16.67;;;;;;;-3.81;73.63;100766.42;1747776;82;20864;-79
2022/01/28 02:21:18;;;;;;;31.68;15.60;;;;;;;-3.81;73.51;100765.14;1752638;82;20967;-78
2022/01/28 02:23:49;;;;;;;34.92;15.78;;;;;;;-3.82;73.40;100769.86;1753156;82;21342;-81
2022/01/28 02:26:16;;;;;;;31.35;15.83;;;;;;;-3.81;73.34;100766.86;1752233;82;20929;-75
2022/01/28 02:28:45;;;;;;;33.13;17.35;;;;;;;-3.82;73.29;100756.20;1752495;82;21803;-79
2022/01/28 02:31:11;;;;;;;31.55;16.40;;;;;;;-3.82;73.34;100763.88;1752570;82;20943;-79
2022/01/28 02:33:38;;;;;;;31.48;15.28;;;;;;;-3.82;73.37;100757.48;1752409;82;20904;-80
2022/01/28 02:36:07;;;;;;;26.62;14.38;;;;;;;-3.83;73.41;100757.03;1752624;82;20896;-80
2022/01/28 02:38:35;;;;;;;29.05;15.58;;;;;;;-3.82;73.56;100754.48;1752627;82;20932;-80
2022/01/28 02:41:04;;;;;;;33.75;16.62;;;;;;;-3.82;73.74;100754.92;1749207;80;21143;-80
2022/01/28 02:43:38;;;;;;;29.05;17.12;;;;;;;-3.82;73.83;100754.48;1745267;82;20971;-80
2022/01/28 02:46:12;;;;;;;30.43;15.15;;;;;;;-3.81;74.04;100727.15;1745074;82;20864;-81
2022/01/28 02:48:41;;;;;;;30.23;16.32;;;;;;;-3.81;74.15;100741.23;1745145;82;20952;-78
2022/01/28 02:51:17;;;;;;;34.70;17.73;;;;;;;-3.79;74.20;100740.38;1745279;82;21011;-79
2022/01/28 02:53:47;;;;;;;31.60;17.25;;;;;;;-3.77;74.28;100751.92;1744723;82;21108;-80
2022/01/28 02:56:15;;;;;;;24.87;14.28;;;;;;;-3.77;74.33;100746.80;1745494;82;20940;-80
2022/01/28 02:58:41;;;;;;;32.83;17.65;;;;;;;-3.77;74.43;100729.71;1745109;82;20975;-71
2022/01/28 03:01:08;;;;;;;34.92;16.32;;;;;;;-3.77;74.45;100747.64;1745129;82;20960;-71
2022/01/28 03:03:35;;;;;;;30.90;17.00;;;;;;;-3.76;74.45;100749.77;1745371;82;20896;-78
2022/01/28 03:06:02;;;;;;;29.52;17.50;;;;;;;-3.75;74.43;100749.78;1745439;82;21119;-78
2022/01/28 03:08:30;;;;;;;34.05;15.80;;;;;;;-3.73;74.50;100749.80;1745135;82;20905;-78
2022/01/28 03:11:30;;;;;;;31.82;17.52;;;;;;;-3.70;74.51;100735.69;1745393;82;20918;-79
2022/01/28 03:16:11;;;;;;;28.20;15.40;;;;;;;-3.64;74.32;100721.61;1745165;82;20955;-78
2022/01/28 03:23:58;;;;;;;32.40;16.80;;;;;;;-3.56;74.15;100713.50;1737913;82;20904;-77
2022/01/28 03:26:28;;;;;;;35.43;18.57;;;;;;;-3.54;74.17;100719.88;1737966;82;20976;-78
2022/01/28 03:28:55;;;;;;;33.65;15.98;;;;;;;-3.53;74.15;100708.79;1738065;82;20917;-75
2022/01/28 03:31:22;;;;;;;32.80;16.07;;;;;;;-3.52;74.10;100709.64;1738465;82;21504;-74
2022/01/28 03:33:49;;;;;;;26.35;15.43;;;;;;;-3.53;74.04;100708.79;1738194;82;20924;-73
2022/01/28 03:36:15;;;;;;;26.27;15.60;;;;;;;-3.53;73.98;100716.48;1738265;82;20972;-74
2022/01/28 03:38:42;;;;;;;28.15;15.00;;;;;;;-3.54;73.88;100709.62;1737940;82;20967;-74
2022/01/28 03:41:16;;;;;;;32.83;18.48;;;;;;;-3.55;73.77;100704.94;1738412;82;20920;-79
2022/01/28 03:43:41;;;;;;;31.75;17.60;;;;;;;-3.55;73.75;100697.25;1738114;82;21134;-77
2022/01/28 03:46:09;;;;;;;34.03;17.98;;;;;;;-3.55;73.85;100708.78;1738286;82;20899;-77
2022/01/28 03:48:36;;;;;;;30.72;16.67;;;;;;;-3.56;73.88;100710.94;1738097;82;20944;-78
2022/01/28 03:51:03;;;;;;;33.48;17.87;;;;;;;-3.53;73.95;100712.63;1738240;82;20972;-81
2022/01/28 03:53:31;;;;;;;32.63;15.98;;;;;;;-3.50;73.89;100708.77;1738208;82;20901;-79
2022/01/28 03:55:58;;;;;;;36.20;18.10;;;;;;;-3.48;73.88;100712.63;1738078;82;21196;-79
2022/01/28 03:58:25;;;;;;;32.50;17.65;;;;;;;-3.46;73.85;100711.77;1738346;82;21485;-78
2022/01/28 04:00:54;;;;;;;27.13;17.10;;;;;;;-3.42;73.83;100722.88;1737939;82;20968;-82
2022/01/28 04:13:55;;;;;;;31.02;18.02;;;;;;;-3.27;73.69;100703.60;1738329;82;21363;-79
2022/01/28 04:18:48;;;;;;;30.48;16.73;;;;;;;-3.21;73.57;100705.31;1738330;82;20979;-79
2022/01/28 04:21:17;;;;;;;31.82;17.60;;;;;;;-3.21;73.55;100706.16;1739964;82;21107;-79
2022/01/28 04:23:44;;;;;;;27.55;16.37;;;;;;;-3.19;73.43;100712.14;1740054;82;20975;-81
2022/01/28 04:26:10;;;;;;;30.90;18.32;;;;;;;-3.20;73.37;100702.75;1740077;82;20952;-81
2022/01/28 04:28:37;;;;;;;32.45;18.27;;;;;;;-3.19;73.38;100706.16;1740227;82;20893;-80
2022/01/28 04:31:04;;;;;;;33.83;17.85;;;;;;;-3.17;73.37;100707.87;1740016;82;20991;-80
2022/01/28 04:33:31;;;;;;;33.53;17.50;;;;;;;-3.14;73.41;100714.25;1721181;82;21127;-82
2022/01/28 04:35:58;;;;;;;29.75;17.02;;;;;;;-3.15;73.40;100710.00;1739977;82;20893;-81
2022/01/28 04:38:46;;;;;;;32.03;18.77;;;;;;;-3.15;73.50;100709.16;1740119;82;21436;-82
2022/01/28 04:41:15;;;;;;;30.10;19.02;;;;;;;-3.13;73.51;100710.85;1738861;82;20921;-80
2022/01/28 04:43:41;;;;;;;36.95;18.32;;;;;;;-3.14;73.44;100710.41;1738675;82;20991;-79
2022/01/28 04:46:16;;;;;;;31.42;17.82;;;;;;;-3.13;73.51;100703.16;1739050;82;21096;-80
2022/01/28 04:48:46;;;;;;;31.90;18.05;;;;;;;-3.13;73.54;100690.77;1739698;82;21398;-81
2022/01/28 04:51:46;;;;;;;31.20;17.35;;;;;;;-3.13;73.61;100688.20;1739827;82;20936;-80
2022/01/28 04:56:31;;;;;;;32.42;18.00;;;;;;;-3.14;73.54;100680.06;1739948;82;20928;-81
2022/01/28 04:59:21;;;;;;;35.68;19.00;;;;;;;-3.14;73.57;100669.81;1738325;82;21134;-81
2022/01/28 05:02:05;;;;;;;33.90;17.70;;;;;;;-3.16;73.57;100672.41;1737645;82;20857;-81
2022/01/28 05:07:09;;;;;;;34.88;17.45;;;;;;;-3.16;73.62;100671.52;1743524;82;20963;-81
2022/01/28 05:09:42;;;;;;;31.30;17.42;;;;;;;-3.17;73.69;100680.94;1739115;82;20860;-79
2022/01/28 05:14:41;;;;;;;32.28;18.73;;;;;;;-3.17;73.79;100677.52;1739746;82;21377;-81
2022/01/28 05:27:20;;;;;;;28.45;16.23;;;;;;;-3.23;73.91;100661.71;1686548;84;20968;-83
2022/01/28 05:29:47;;;;;;;33.30;17.45;;;;;;;-3.22;73.86;100655.74;1686740;84;21011;-83
2022/01/28 05:32:14;;;;;;;27.80;17.20;;;;;;;-3.19;73.84;100658.72;1686962;85;21003;-81
2022/01/28 05:34:41;;;;;;;28.40;16.65;;;;;;;-3.19;73.75;100657.00;1687023;85;21442;-83
2022/01/28 05:37:08;;;;;;;27.02;15.32;;;;;;;-3.19;73.71;100659.56;1686679;85;21161;-81
2022/01/28 05:39:35;;;;;;;29.30;16.48;;;;;;;-3.19;73.76;100664.70;1686654;84;20968;-80
2022/01/28 05:42:04;;;;;;;28.47;16.90;;;;;;;-3.18;73.74;100660.02;1686647;84;21505;-82
2022/01/28 05:44:30;;;;;;;26.07;14.93;;;;;;;-3.20;73.79;100660.44;1686770;84;20900;-82
2022/01/28 05:47:02;;;;;;;24.85;14.50;;;;;;;-3.19;73.81;100665.14;1686762;85;21228;-85
2022/01/28 05:49:26;;;;;;;26.62;15.60;;;;;;;-3.20;73.80;100657.87;1686453;85;21167;-82
2022/01/28 05:51:53;;;;;;;30.90;15.68;;;;;;;-3.21;73.87;100651.02;1686836;84;21095;-81
2022/01/28 05:54:20;;;;;;;24.10;14.75;;;;;;;-3.21;73.97;100652.31;1686206;85;21035;-80
2022/01/28 05:56:47;;;;;;;25.35;14.90;;;;;;;-3.21;74.08;100661.28;1686665;85;21019;-81
2022/01/28 05:59:14;;;;;;;28.45;15.53;;;;;;;-3.21;74.23;100668.13;1686478;85;21018;-81
2022/01/28 06:01:41;;;;;;;28.57;16.00;;;;;;;-3.22;74.38;100655.74;1734312;82;21145;-81
2022/01/28 06:04:08;;;;;;;27.22;16.07;;;;;;;-3.23;74.49;100643.77;1739754;82;21474;-81
2022/01/28 06:06:35;;;;;;;27.65;15.38;;;;;;;-3.23;74.55;100655.30;1740247;82;20992;-82
2022/01/28 06:09:02;;;;;;;30.32;16.48;;;;;;;-3.22;74.58;100650.61;1740001;82;20952;-84
2022/01/28 06:11:29;;;;;;;28.35;16.02;;;;;;;-3.21;74.65;100648.46;1741126;82;20897;-79
2022/01/28 06:13:57;;;;;;;29.40;15.55;;;;;;;-3.21;74.80;100642.48;1740583;82;22547;-81
2022/01/28 06:16:24;;;;;;;27.07;15.83;;;;;;;-3.20;74.92;100632.64;1740755;82;20960;-83
2022/01/28 06:18:51;;;;;;;31.10;16.48;;;;;;;-3.19;75.11;100648.47;1740777;82;21370;-83
2022/01/28 06:21:18;;;;;;;28.73;16.27;;;;;;;-3.17;75.12;100636.05;1745729;82;20909;-83
2022/01/28 06:23:45;;;;;;;28.90;16.55;;;;;;;-3.13;75.11;100647.17;1746443;82;20940;-81
2022/01/28 06:26:12;;;;;;;32.67;16.90;;;;;;;-3.08;75.10;100644.15;1745784;82;21112;-83
2022/01/28 06:28:39;;;;;;;33.42;18.17;;;;;;;-3.03;75.03;100644.97;1745108;82;21351;-83
2022/01/28 06:31:06;;;;;;;28.15;15.75;;;;;;;-2.97;74.92;100647.96;1745637;82;21476;-84
2022/01/28 06:34:42;;;;;;;32.33;15.93;;;;;;;-2.84;74.87;100641.07;1797961;79;22614;-84
2022/01/28 06:37:10;;;;;;;26.80;16.23;;;;;;;-2.84;74.84;100639.78;1758437;80;20987;-82
2022/01/28 06:39:40;;;;;;;27.22;15.32;;;;;;;-2.82;74.85;100641.48;1758265;80;21142;-81
2022/01/28 06:42:10;;;;;;;29.55;16.97;;;;;;;-2.82;74.93;100635.06;1747410;81;21090;-81
2022/01/28 06:44:39;;;;;;;26.82;16.82;;;;;;;-2.80;75.03;100633.34;1758391;80;21512;-82
2022/01/28 06:47:10;;;;;;;29.77;16.23;;;;;;;-2.77;75.05;100633.31;1739841;80;20943;-80
2022/01/28 06:49:40;;;;;;;26.77;16.15;;;;;;;-2.75;75.09;100634.16;1715895;83;21475;-81
2022/01/28 06:52:07;;;;;;;35.52;17.90;;;;;;;-2.71;75.07;100633.30;1715360;83;21140;-80
2022/01/28 06:54:34;;;;;;;28.65;16.85;;;;;;;-2.64;75.08;100626.85;1715185;83;20946;-84
2022/01/28 06:57:01;;;;;;;27.82;15.08;;;;;;;-2.56;75.01;100632.77;1715218;83;20965;-82
2022/01/28 06:59:28;;;;;;;28.10;17.45;;;;;;;-2.48;75.00;100635.30;1715261;83;20965;-81
2022/01/28 07:01:58;;;;;;;24.02;14.30;;;;;;;-2.41;74.95;100630.11;1715442;83;20948;-83
2022/01/28 07:04:25;;;;;;;26.00;14.60;;;;;;;-2.38;74.85;100626.66;1715545;83;21103;-83
2022/01/28 07:06:52;;;;;;;27.82;15.18;;;;;;;-2.36;74.95;100624.94;1715413;83;20981;-80
2022/01/28 07:09:19;;;;;;;35.60;18.62;;;;;;;-2.35;75.00;100624.94;1715120;83;20966;-78
2022/01/28 07:11:48;;;;;;;29.07;16.05;;;;;;;-2.32;75.00;100620.20;1715781;83;21080;-83
2022/01/28 07:14:16;;;;;;;34.03;19.45;;;;;;;-2.30;75.07;100615.91;1716225;83;21287;-81
2022/01/28 07:16:43;;;;;;;29.52;16.62;;;;;;;-2.30;75.15;100617.20;1715888;83;21119;-86
2022/01/28 07:19:11;;;;;;;25.60;16.65;;;;;;;-2.28;75.21;100623.62;1716113;83;20949;-87
2022/01/28 07:21:38;;;;;;;28.65;15.43;;;;;;;-2.26;75.24;100632.16;1755000;80;20970;-83
2022/01/28 07:24:05;;;;;;;26.60;15.63;;;;;;;-2.24;75.25;100632.58;1758824;80;20959;-85
2022/01/28 07:26:33;;;;;;;23.35;15.25;;;;;;;-2.19;75.34;100625.67;1758887;80;20852;-86
2022/01/28 07:29:00;;;;;;;25.40;15.45;;;;;;;-2.15;75.43;100619.66;1759095;80;21097;-86
2022/01/28 07:31:26;;;;;;;23.38;15.03;;;;;;;-2.10;75.45;100628.16;1758593;80;20865;-85
2022/01/28 07:33:53;;;;;;;23.55;16.17;;;;;;;-2.02;75.44;100627.24;1758682;80;20983;-84
2022/01/28 07:36:21;;;;;;;28.50;16.75;;;;;;;-1.96;75.32;100624.19;1758717;80;20975;-84
2022/01/28 07:38:50;;;;;;;25.20;15.25;;;;;;;-1.87;75.23;100628.40;1758962;81;20884;-84
2022/01/28 07:41:16;;;;;;;28.12;16.25;;;;;;;-1.81;75.15;100622.37;1758545;81;21143;-83
2022/01/28 07:43:43;;;;;;;28.92;17.00;;;;;;;-1.76;75.09;100615.02;1758993;80;21369;-81
2022/01/28 07:46:10;;;;;;;28.95;16.25;;;;;;;-1.69;75.11;100608.09;1758106;81;20948;-82
2022/01/28 07:48:37;;;;;;;31.42;18.30;;;;;;;-1.61;75.17;100596.47;1758115;80;20936;-84
2022/01/28 07:51:04;;;;;;;32.17;18.85;;;;;;;-1.53;75.23;100598.53;1758287;81;20872;-84
2022/01/28 07:53:33;;;;;;;35.13;18.85;;;;;;;-1.46;75.32;100587.30;1759729;80;21147;-84
2022/01/28 07:56:00;;;;;;;32.67;17.67;;;;;;;-1.37;75.38;100587.64;1759064;80;20971;-84
2022/01/28 07:58:26;;;;;;;29.75;17.52;;;;;;;-1.30;75.29;100590.11;1758795;81;20897;-83
2022/01/28 08:00:53;;;;;;;27.13;16.48;;;;;;;-1.20;75.30;100597.30;1758275;80;20888;-83
2022/01/28 08:03:20;;;;;;;29.37;19.12;;;;;;;-1.12;75.05;100593.33;1758271;81;20940;-83
2022/01/28 08:05:47;;;;;;;31.12;16.67;;;;;;;-1.06;75.03;100597.13;1757905;81;21138;-83
2022/01/28 08:08:18;;;;;;;27.22;14.83;;;;;;;-1.00;74.99;100599.63;1758017;81;20885;-84
2022/01/28 08:10:43;;;;;;;28.38;17.30;;;;;;;-0.93;74.83;100597.38;1757949;81;20932;-79
2022/01/28 08:13:12;;;;;;;24.60;16.48;;;;;;;-0.85;74.78;100596.82;1757837;80;20943;-77
2022/01/28 08:15:40;;;;;;;27.65;15.98;;;;;;;-0.70;74.65;100591.91;1758524;80;21013;-75
2022/01/28 08:18:09;;;;;;;26.77;16.48;;;;;;;-0.52;74.58;100593.36;1758195;81;21767;-77
2022/01/28 08:20:36;;;;;;;28.07;16.23;;;;;;;-0.33;74.00;100585.38;1758107;80;20920;-76
2022/01/28 08:23:03;;;;;;;25.62;16.42;;;;;;;-0.23;73.35;100577.89;1757976;81;21358;-79
2022/01/28 08:25:34;;;;;;;28.47;16.50;;;;;;;-0.17;72.87;100575.22;1757887;81;21525;-79
2022/01/28 08:28:01;;;;;;;26.50;15.80;;;;;;;-0.17;72.68;100573.94;1758150;81;21358;-78
2022/01/28 08:30:29;;;;;;;23.20;14.80;;;;;;;-0.21;72.64;100567.97;1758867;81;21117;-79
2022/01/28 08:32:56;;;;;;;23.18;15.23;;;;;;;-0.22;72.44;100569.30;1757365;80;21773;-76
2022/01/28 08:35:30;;;;;;;24.23;14.68;;;;;;;-0.24;72.61;100560.30;1744575;80;20971;-75
2022/01/28 08:37:53;;;;;;;22.73;13.53;;;;;;;-0.30;72.39;100559.11;1744626;81;21449;-76
2022/01/28 08:40:20;;;;;;;25.30;14.53;;;;;;;-0.31;72.60;100554.84;1744693;81;20977;-75
2022/01/28 08:42:47;;;;;;;25.85;15.10;;;;;;;-0.32;72.58;100551.83;1744741;81;21525;-75
2022/01/28 08:45:15;;;;;;;27.65;16.70;;;;;;;-0.30;72.90;100550.09;1744673;81;20881;-76
2022/01/28 08:47:41;;;;;;;26.20;15.65;;;;;;;-0.24;73.16;100551.72;1744880;81;20999;-74
2022/01/28 08:50:09;;;;;;;27.02;16.07;;;;;;;-0.17;73.29;100550.74;1744474;81;20976;-76
2022/01/28 08:52:36;;;;;;;22.20;14.20;;;;;;;-0.10;73.66;100550.20;1744831;81;20885;-75
2022/01/28 08:55:04;;;;;;;22.50;14.70;;;;;;;-0.12;73.40;100543.77;1744821;81;21132;-74
2022/01/28 08:57:31;;;;;;;25.52;15.18;;;;;;;-0.12;73.46;100533.91;1744521;81;20976;-75
2022/01/28 09:00:06;;;;;;;29.23;17.75;;;;;;;-0.13;73.48;100529.64;1744378;80;20897;-76
2022/01/28 09:02:29;;;;;;;28.38;17.25;;;;;;;-0.14;73.62;100533.08;1744441;81;21446;-74
2022/01/28 09:04:56;;;;;;;30.10;17.35;;;;;;;-0.10;73.46;100529.58;1744743;81;21019;-76
2022/01/28 09:07:23;;;;;;;30.80;18.37;;;;;;;-0.11;73.45;100524.87;1744620;81;21129;-76
2022/01/28 09:09:52;;;;;;;28.27;16.57;;;;;;;-0.14;73.51;100517.17;1744565;81;21391;-74
2022/01/28 09:12:40;;;;;;;26.97;17.35;;;;;;;-0.13;73.59;100517.60;1744599;81;21466;-76
2022/01/28 09:15:05;;;;;;;29.05;16.87;;;;;;;-0.13;73.70;100511.60;1744780;81;20905;-76
2022/01/28 09:17:32;;;;;;;28.15;17.75;;;;;;;-0.09;73.68;100508.94;1744878;81;21438;-76
2022/01/28 09:19:59;;;;;;;29.42;17.85;;;;;;;-0.10;73.85;100511.09;1744499;81;21117;-73
2022/01/28 09:22:26;;;;;;;24.57;16.75;;;;;;;-0.05;74.08;100515.72;1744827;80;20857;-77
2022/01/28 09:24:53;;;;;;;31.42;17.82;;;;;;;0.01;74.06;100512.19;1744401;81;21469;-73
2022/01/28 09:27:20;;;;;;;31.27;19.42;;;;;;;0.02;74.15;100499.70;1744145;81;21008;-74
2022/01/28 09:29:47;;;;;;;35.58;20.70;;;;;;;0.08;74.23;100511.19;1744557;81;20854;-74
2022/01/28 09:32:16;;;;;;;28.32;18.52;;;;;;;0.10;74.30;100498.28;1744713;81;21176;-76
2022/01/28 09:34:44;;;;;;;31.02;19.95;;;;;;;0.10;74.34;100488.81;1752917;80;21451;-76
2022/01/28 09:37:15;;;;;;;31.25;19.75;;;;;;;0.10;74.46;100493.12;1757647;81;20935;-74
2022/01/28 09:39:48;;;;;;;34.13;20.48;;;;;;;0.10;74.54;100488.81;1758026;81;20971;-75
2022/01/28 09:42:15;;;;;;;33.67;18.75;;;;;;;0.09;74.67;100486.25;1757651;81;21696;-78
2022/01/28 09:44:42;;;;;;;31.55;19.30;;;;;;;0.09;74.76;100479.39;1757885;81;21556;-77
2022/01/28 09:47:11;;;;;;;30.68;18.35;;;;;;;0.11;74.91;100471.61;1757489;81;20981;-76
2022/01/28 09:49:48;;;;;;;29.95;16.73;;;;;;;0.09;75.07;100481.09;1757909;81;20896;-80
2022/01/28 09:52:10;;;;;;;29.42;17.67;;;;;;;0.08;75.25;100475.09;1755040;81;20936;-78
2022/01/28 09:54:38;;;;;;;26.68;17.75;;;;;;;0.11;75.69;100480.63;1757780;80;20983;-76
2022/01/28 09:57:08;;;;;;;29.63;17.30;;;;;;;0.14;75.75;100488.33;1758174;80;21093;-77
2022/01/28 09:59:37;;;;;;;24.95;17.02;;;;;;;0.15;75.75;100480.54;1757942;81;20837;-75
2022/01/28 10:02:04;;;;;;;29.87;16.95;;;;;;;0.16;75.93;100475.81;1758158;80;20920;-80
2022/01/28 10:04:34;;;;;;;33.13;20.68;;;;;;;0.18;76.23;100475.79;1757828;80;20932;-79
2022/01/28 10:07:14;;;;;;;33.15;20.50;;;;;;;0.18;76.37;100482.23;1757957;80;21393;-78
2022/01/28 10:09:57;;;;;;;26.27;16.87;;;;;;;0.18;76.31;100477.08;1757775;81;21203;-79
2022/01/28 10:12:33;;;;;;;28.92;18.07;;;;;;;0.16;76.43;100466.78;1757548;80;20884;-77
2022/01/28 10:15:16;;;;;;;30.57;19.32;;;;;;;0.17;76.50;100463.77;1756777;81;20865;-77
2022/01/28 10:17:58;;;;;;;31.00;19.23;;;;;;;0.15;76.62;100466.36;1757290;80;20944;-76
2022/01/28 10:20:26;;;;;;;49.58;24.65;;;;;;;0.20;76.81;100450.80;1758202;80;20900;-78
2022/01/28 10:22:57;;;;;;;34.55;18.15;;;;;;;0.29;76.84;100453.63;1757746;81;21123;-74
2022/01/28 10:25:34;;;;;;;40.25;19.92;;;;;;;0.30;76.78;100445.88;1757737;80;21370;-77
2022/01/28 10:28:07;;;;;;;35.00;18.98;;;;;;;0.33;76.72;100440.64;1757752;80;20882;-76
2022/01/28 10:30:42;;;;;;;27.70;17.32;;;;;;;0.39;76.78;100434.52;1757765;80;20932;-80
2022/01/28 10:33:21;;;;;;;25.48;17.87;;;;;;;0.45;76.59;100418.91;1757701;81;20967;-79
2022/01/28 10:36:02;;;;;;;28.83;17.75;;;;;;;0.49;76.39;100410.23;1745104;80;21151;-77
2022/01/28 10:38:41;;;;;;;36.08;17.60;;;;;;;0.54;76.50;100400.65;1744456;81;20877;-79
2022/01/28 10:41:17;;;;;;;28.10;16.35;;;;;;;0.64;76.42;100401.73;1744704;82;20885;-78
2022/01/28 10:43:48;;;;;;;24.43;14.75;;;;;;;0.73;76.39;100395.91;1744422;81;21004;-76
2022/01/28 10:46:34;;;;;;;25.40;16.42;;;;;;;0.84;76.23;100382.75;1744576;82;20877;-79
2022/01/28 10:49:01;;;;;;;25.45;15.58;;;;;;;0.95;76.02;100385.08;1743680;81;21157;-78
2022/01/28 10:51:48;;;;;;;28.15;16.62;;;;;;;1.05;75.62;100381.85;1744774;82;21058;-78
2022/01/28 10:54:18;;;;;;;23.98;15.05;;;;;;;1.11;75.51;100376.09;1744590;81;20924;-79
2022/01/28 10:56:54;;;;;;;22.95;14.93;;;;;;;1.15;75.16;100362.64;1744645;81;20987;-77
2022/01/28 10:59:34;;;;;;;24.60;15.72;;;;;;;1.14;75.18;100355.80;1744305;81;20873;-75
2022/01/28 11:01:58;;;;;;;22.45;15.10;;;;;;;1.12;75.32;100348.08;1743850;81;21138;-79
2022/01/28 11:04:25;;;;;;;30.50;16.77;;;;;;;1.13;75.42;100352.34;1744508;81;20873;-76
2022/01/28 11:06:55;;;;;;;27.65;15.75;;;;;;;1.15;75.48;100343.27;1734260;81;20940;-77
2022/01/28 11:09:22;;;;;;;26.52;16.55;;;;;;;1.16;75.53;100350.16;1744585;81;20901;-78
2022/01/28 11:11:51;;;;;;;32.40;18.73;;;;;;;1.15;75.50;100349.73;1745122;81;20941;-75
2022/01/28 11:14:21;;;;;;;31.20;18.15;;;;;;;1.14;75.53;100341.59;1744850;81;21137;-80
2022/01/28 11:16:48;;;;;;;35.88;20.05;;;;;;;1.12;75.65;100336.45;1744615;81;21481;-80
2022/01/28 11:19:19;;;;;;;32.03;19.02;;;;;;;1.11;75.64;100342.94;1744711;80;20917;-79
2022/01/28 11:22:01;;;;;;;26.90;17.50;;;;;;;1.07;75.90;100337.03;1744997;80;20885;-76
2022/01/28 11:25:02;;;;;;;27.90;17.37;;;;;;;1.01;76.31;100326.40;1744621;81;20893;-79
2022/01/28 11:27:34;;;;;;;31.75;17.90;;;;;;;0.93;76.52;100316.70;1744650;81;21343;-76
2022/01/28 11:30:25;;;;;;;27.73;18.25;;;;;;;0.89;76.84;100312.95;1744662;81;21493;-80
2022/01/28 11:33:08;;;;;;;27.15;17.00;;;;;;;0.90;76.91;100315.95;1744924;81;20940;-76
2022/01/28 11:35:53;;;;;;;28.52;19.40;;;;;;;0.91;76.97;100312.47;1744606;80;20869;-73
2022/01/28 11:38:42;;;;;;;33.45;18.95;;;;;;;0.89;77.09;100315.52;1743773;80;20850;-73
2022/01/28 11:41:15;;;;;;;32.08;19.50;;;;;;;0.92;77.21;100321.92;1744551;80;22168;-73
2022/01/28 11:43:55;;;;;;;34.15;20.55;;;;;;;0.93;77.17;100317.98;1744543;80;20932;-73
2022/01/28 11:46:36;;;;;;;32.67;19.75;;;;;;;0.93;77.02;100315.41;1744532;81;20897;-74
2022/01/28 11:49:08;;;;;;;30.10;19.17;;;;;;;0.93;76.98;100317.98;1744478;81;20920;-72
2022/01/28 11:51:38;;;;;;;32.75;17.77;;;;;;;0.96;77.05;100311.92;1744651;81;20924;-75
2022/01/28 11:54:08;;;;;;;29.63;17.57;;;;;;;0.99;77.04;100301.51;1744780;80;21810;-74
2022/01/28 11:57:02;;;;;;;26.45;17.42;;;;;;;1.02;77.04;100290.67;1744584;81;21368;-72
2022/01/28 11:59:29;;;;;;;34.35;19.77;;;;;;;1.04;76.87;100297.06;1745109;81;20991;-75
2022/01/28 12:02:07;;;;;;;39.95;19.85;;;;;;;1.03;76.83;100282.47;1744428;81;20962;-74
2022/01/28 12:04:39;;;;;;;31.73;18.20;;;;;;;1.03;76.87;100281.19;1744642;81;20931;-75
2022/01/28 12:07:18;;;;;;;29.05;18.73;;;;;;;1.00;76.96;100289.86;1744591;81;21080;-72
2022/01/28 12:09:52;;;;;;;27.15;16.27;;;;;;;0.95;77.32;100292.14;1744766;81;20940;-75
2022/01/28 12:12:47;;;;;;;25.45;16.57;;;;;;;0.91;77.62;100298.27;1744723;81;21478;-73
2022/01/28 12:15:19;;;;;;;35.00;20.35;;;;;;;0.90;77.92;100296.59;1744774;81;20909;-73
2022/01/28 12:17:50;;;;;;;30.85;15.80;;;;;;;0.86;78.17;100295.80;1744814;81;21009;-75
2022/01/28 12:20:44;;;;;;;36.50;20.30;;;;;;;0.88;78.45;100298.36;1745065;81;21144;-73
2022/01/28 12:23:19;;;;;;;30.17;16.62;;;;;;;0.88;78.49;100277.70;1744736;81;21391;-76
2022/01/28 12:25:47;;;;;;;29.25;16.77;;;;;;;0.88;78.63;100277.70;1745092;80;20908;-74
2022/01/28 12:28:20;;;;;;;24.37;14.58;;;;;;;0.88;78.57;100276.41;1744603;81;20940;-76